Airfield :







YOU CAN JOIN US ON...

 
LOGIN :

Register | Disclaimer

   EN    FR    IT 

 









Legend :    VFR   Marginal VFR   IFR   Intensive IFR   Very Intensive IFR
Visi :
Ceiling :
>= 8 km
>= 3000ft
5 to 8 km
1000 to 3000 ft
1500m to 5 km
500 to 1000 ft
800 to 1500m
200 to 500 ft
< 800m
< 200 ft
Symbols :   Thunderstorms  Fog  Heavy snow  Heavy precipitations  Wind > 20 kt






- Airport Elevation : 335 ft
- IATA code : BTV


KBTV - Burlington International

CURRENT METAR :
  • 010354Z 32004KT 10SM CLR 02/M08 A2997 RMK AO2 SLP151 LAST T00171083

EXPIRED METARs :
  • 010254Z 32004KT 10SM CLR 02/M08 A2999 RMK AO2 SLP158 T00221083 58003
  • 010154Z 35004KT 10SM CLR 03/M08 A3000 RMK AO2 SLP161 T00331083

TAF KBTV
Valid from the 01 at 00:00 until the 02 at 00:00 UTC


312320Z 0100/0124 36010KT P6SM SKC
FM010300 VRB03KT P6SM SKC
FM011100 36005KT P6SM SCT080
FM012100 35010KT P6SM OVC025



MET'MAP, your aeronautical weather chart ! - Copyright ORBIFLY December 2007 - Disclaimer

ORBIFLY MET'MAP TEAM :

Programming & Development : Alexandra Zaïnal
Concept & original design : Baudouin d'Aumeries
Assistance for programming : Marc-Olivier Méhu
Technical & hardware support : Manuel Goepfert

Contact : metmap@orbifly.com




SOURCES & CREDITS :

   NOAA